Time;durP1;ratioP1;P1;durP2;ratioP2;P2;SDS_P1;SDS_P2;PMS_P1;PMS_P2;Temp;Humidity;BMP_temperature;BMP_pressure;BME280_temperature;BME280_humidity;BME280_pressure;Samples;Min_cycle;Max_cycle;Signal;HPM_P1;HPM_P2
2022/01/09 00:01:36;;;;;;;6.25;4.60;;;;;;;7.00;84.36;98543.25;3588866;40;20067;-61
2022/01/09 00:04:02;;;;;;;8.60;5.72;;;;;;;7.03;84.93;98547.50;3585939;40;20366;-61
2022/01/09 00:06:28;;;;;;;8.25;7.30;;;;;;;7.05;84.78;98564.25;3586463;40;20338;-61
2022/01/09 00:08:53;;;;;;;9.63;7.53;;;;;;;7.05;84.91;98586.47;3585545;40;20062;-60
2022/01/09 00:11:26;;;;;;;6.53;5.97;;;;;;;7.07;84.43;98595.22;3587270;40;20059;-61
2022/01/09 00:13:56;;;;;;;5.80;3.72;;;;;;;7.11;83.49;98599.31;3585867;40;20052;-62
2022/01/09 00:16:23;;;;;;;4.13;2.10;;;;;;;7.11;81.64;98628.69;3585357;40;20048;-62
2022/01/09 00:18:50;;;;;;;2.15;1.75;;;;;;;7.08;80.23;98644.97;3585241;40;20060;-62
2022/01/09 00:21:18;;;;;;;3.20;2.08;;;;;;;7.08;81.40;98658.34;3587906;40;20055;-61
2022/01/09 00:23:45;;;;;;;2.22;1.70;;;;;;;7.03;81.37;98663.19;3585827;40;20061;-62
2022/01/09 00:26:11;;;;;;;3.28;2.00;;;;;;;7.04;81.09;98670.25;3585713;40;20051;-62
2022/01/09 00:28:37;;;;;;;5.15;1.90;;;;;;;7.01;80.34;98686.53;3586921;40;20063;-62
2022/01/09 00:31:02;;;;;;;6.38;2.45;;;;;;;6.95;80.49;98682.53;3589665;40;20475;-62
2022/01/09 00:33:28;;;;;;;5.75;2.00;;;;;;;6.84;80.96;98663.84;3586198;40;20068;-62
2022/01/09 00:35:54;;;;;;;7.10;2.85;;;;;;;6.92;80.35;98697.97;3585500;40;20052;-61
2022/01/09 00:38:20;;;;;;;10.32;2.75;;;;;;;6.95;80.20;98708.41;3585645;40;20056;-62
2022/01/09 00:40:46;;;;;;;9.57;2.67;;;;;;;6.98;80.69;98708.16;3589560;40;20056;-62
2022/01/09 00:43:12;;;;;;;10.48;2.95;;;;;;;6.94;80.43;98728.06;3584580;40;20298;-61
2022/01/09 00:45:40;;;;;;;15.50;2.67;;;;;;;6.88;80.65;98737.44;3586663;40;20060;-62
2022/01/09 00:48:07;;;;;;;19.30;4.18;;;;;;;6.88;80.11;98731.22;3586619;40;20314;-61
2022/01/09 00:50:36;;;;;;;16.30;3.22;;;;;;;6.87;79.51;98745.53;3585283;40;20092;-61
2022/01/09 00:53:03;;;;;;;25.00;3.72;;;;;;;6.83;79.27;98752.13;3585697;40;20390;-64
2022/01/09 00:55:29;;;;;;;22.83;4.35;;;;;;;6.75;79.08;98747.38;3584670;40;20371;-61
2022/01/09 00:57:55;;;;;;;19.65;4.20;;;;;;;6.81;79.91;98759.38;3588439;40;20115;-62
2022/01/09 01:00:20;;;;;;;20.73;4.45;;;;;;;6.77;79.73;98757.94;3590259;40;20051;-61
2022/01/09 01:02:46;;;;;;;28.48;4.82;;;;;;;6.80;79.21;98773.72;3588444;40;20481;-61
2022/01/09 01:05:12;;;;;;;22.25;4.97;;;;;;;6.77;79.85;98784.63;3586084;40;20328;-61
2022/01/09 01:07:38;;;;;;;32.00;5.25;;;;;;;6.79;80.64;98791.56;3589110;40;20394;-61
2022/01/09 01:10:04;;;;;;;27.83;4.72;;;;;;;6.79;80.51;98796.03;3585743;40;20346;-61
2022/01/09 01:12:31;;;;;;;24.20;4.32;;;;;;;6.74;79.12;98799.91;3586582;40;20060;-61
2022/01/09 01:14:57;;;;;;;24.30;4.43;;;;;;;6.74;79.41;98797.25;3585349;40;20276;-62
2022/01/09 01:17:24;;;;;;;27.75;4.85;;;;;;;6.73;79.26;98806.25;3585102;40;20057;-61
2022/01/09 01:19:50;;;;;;;27.38;4.65;;;;;;;6.74;79.16;98813.28;3586321;40;20048;-62
2022/01/09 01:22:16;;;;;;;25.35;4.00;;;;;;;6.74;79.24;98825.78;3585496;40;20138;-61
2022/01/09 01:24:43;;;;;;;25.58;4.82;;;;;;;6.74;79.21;98839.13;3585347;40;20399;-62
2022/01/09 01:27:09;;;;;;;24.17;4.70;;;;;;;6.67;78.59;98825.41;3585135;40;20118;-62
2022/01/09 01:29:37;;;;;;;23.88;4.50;;;;;;;6.57;78.45;98816.41;3585115;40;20126;-62
2022/01/09 01:32:04;;;;;;;24.15;3.50;;;;;;;6.70;77.11;98838.53;3590000;40;20039;-61
2022/01/09 01:34:30;;;;;;;26.27;4.10;;;;;;;6.67;77.53;98849.44;3584777;40;20052;-61
2022/01/09 01:36:55;;;;;;;25.58;4.55;;;;;;;6.67;78.31;98860.13;3586322;40;20302;-61
2022/01/09 01:39:21;;;;;;;27.73;4.60;;;;;;;6.60;78.47;98858.91;3585339;40;20106;-62
2022/01/09 01:41:48;;;;;;;24.05;4.30;;;;;;;6.70;79.62;98875.91;3584578;40;20040;-62
2022/01/09 01:44:15;;;;;;;20.08;4.03;;;;;;;6.69;79.34;98895.56;3585746;40;20055;-62
2022/01/09 01:46:41;;;;;;;33.28;4.43;;;;;;;6.69;79.37;98898.25;3589581;40;20369;-61
2022/01/09 01:49:12;;;;;;;28.48;4.53;;;;;;;6.80;79.27;98901.91;3586659;40;20056;-62
2022/01/09 01:51:43;;;;;;;29.58;5.95;;;;;;;6.78;78.28;98909.16;3586829;40;20047;-62
2022/01/09 01:54:12;;;;;;;29.33;5.13;;;;;;;6.78;77.59;98903.81;3590441;40;20048;-62
2022/01/09 01:56:39;;;;;;;26.48;4.43;;;;;;;6.82;77.90;98929.31;3586439;40;20326;-62
2022/01/09 01:59:06;;;;;;;26.42;4.70;;;;;;;6.78;78.59;98920.69;3586942;40;20088;-62
2022/01/09 02:01:35;;;;;;;28.90;4.85;;;;;;;6.81;78.51;98927.63;3587145;40;20060;-62
2022/01/09 02:04:02;;;;;;;29.13;5.03;;;;;;;6.81;79.08;98935.63;3589549;40;20044;-62
2022/01/09 02:06:28;;;;;;;25.48;5.68;;;;;;;6.82;79.32;98940.00;3586519;40;20272;-62
2022/01/09 02:08:53;;;;;;;31.13;5.60;;;;;;;6.85;79.36;98947.78;3586842;40;20093;-62
2022/01/09 02:11:19;;;;;;;25.80;5.50;;;;;;;6.76;80.28;98944.00;3589794;40;20367;-62
2022/01/09 02:13:46;;;;;;;50.08;7.78;;;;;;;6.83;80.16;98960.41;3587133;40;20217;-62
2022/01/09 02:16:17;;;;;;;36.60;6.28;;;;;;;6.85;80.40;98966.47;3586844;40;20157;-62
2022/01/09 02:18:46;;;;;;;40.90;7.07;;;;;;;6.87;79.62;98973.41;3586551;40;20415;-63
2022/01/09 02:21:14;;;;;;;38.10;6.30;;;;;;;6.74;79.80;98948.59;3586296;40;20056;-63
2022/01/09 02:23:45;;;;;;;35.63;6.70;;;;;;;6.88;79.71;98964.44;3590423;40;20108;-62
2022/01/09 02:26:21;;;;;;;33.83;6.25;;;;;;;6.95;79.98;98986.19;3587133;40;20040;-62
2022/01/09 02:28:48;;;;;;;41.92;7.32;;;;;;;6.95;80.11;98991.53;3587505;40;20056;-62
2022/01/09 02:31:15;;;;;;;31.70;5.85;;;;;;;6.78;80.02;98959.91;3590478;40;20087;-62
2022/01/09 02:33:41;;;;;;;33.75;6.28;;;;;;;6.69;80.23;98956.97;3587167;40;20134;-63
2022/01/09 02:36:07;;;;;;;36.92;6.57;;;;;;;6.84;80.15;98983.47;3586776;40;20059;-63
2022/01/09 02:38:33;;;;;;;32.10;5.82;;;;;;;6.94;79.76;99005.84;3586785;40;20044;-63
2022/01/09 02:40:59;;;;;;;32.55;5.70;;;;;;;6.90;79.77;99009.72;3589800;40;20056;-62
2022/01/09 02:43:25;;;;;;;33.05;5.90;;;;;;;6.92;79.20;99011.31;3629222;22;20059;-65
2022/01/09 02:46:01;;;;;;;27.08;4.78;;;;;;;6.98;78.62;99029.53;3595315;39;20059;-66
2022/01/09 02:48:31;;;;;;;35.55;5.78;;;;;;;6.97;78.28;99016.28;3595316;39;20134;-65
2022/01/09 02:51:03;;;;;;;33.58;5.35;;;;;;;6.97;78.11;99035.81;3593978;39;20095;-65
2022/01/09 02:53:33;;;;;;;25.88;4.60;;;;;;;7.01;78.77;99035.59;3594764;39;20144;-65
2022/01/09 02:55:59;;;;;;;29.48;4.80;;;;;;;6.97;78.48;99051.00;3594615;39;20055;-65
2022/01/09 02:58:25;;;;;;;28.45;4.30;;;;;;;6.96;77.55;99060.84;3594768;39;20051;-65
2022/01/09 03:00:50;;;;;;;28.73;4.40;;;;;;;6.94;77.43;99060.09;3598426;39;20063;-67
2022/01/09 03:03:16;;;;;;;26.67;4.65;;;;;;;6.91;77.65;99059.47;3595190;39;20050;-67
2022/01/09 03:05:42;;;;;;;22.70;4.47;;;;;;;6.95;76.75;99067.16;3595021;39;20051;-65
2022/01/09 03:08:08;;;;;;;21.90;4.07;;;;;;;6.93;76.37;99084.28;3595306;39;20079;-65
2022/01/09 03:10:34;;;;;;;28.77;5.07;;;;;;;6.91;76.95;99091.53;3594571;39;20054;-65
2022/01/09 03:13:00;;;;;;;24.33;4.05;;;;;;;6.93;76.84;99094.94;3585321;40;20319;-65
2022/01/09 03:15:27;;;;;;;29.60;4.32;;;;;;;6.70;75.97;99051.28;3594920;39;20040;-66
2022/01/09 03:17:53;;;;;;;19.83;3.72;;;;;;;6.79;75.83;99079.97;3594755;39;20417;-67
2022/01/09 03:20:26;;;;;;;23.63;4.18;;;;;;;6.71;75.60;99082.34;3599513;39;20044;-67
2022/01/09 03:22:56;;;;;;;23.80;4.45;;;;;;;6.74;75.23;99101.66;3598260;39;20058;-64
2022/01/09 03:25:27;;;;;;;22.27;4.20;;;;;;;6.66;75.27;99098.72;3594701;39;20096;-66
2022/01/09 03:27:56;;;;;;;21.17;3.88;;;;;;;6.79;75.02;99120.03;3594535;39;20063;-66
2022/01/09 03:30:23;;;;;;;22.05;3.70;;;;;;;6.79;75.58;99132.50;3594287;39;20093;-66
2022/01/09 03:32:52;;;;;;;17.35;3.97;;;;;;;6.78;74.97;99144.16;3594814;39;20047;-66
2022/01/09 03:35:24;;;;;;;22.15;4.00;;;;;;;6.77;75.24;99145.97;3594926;39;20058;-65
2022/01/09 03:37:50;;;;;;;23.05;3.88;;;;;;;6.74;75.64;99149.72;3598099;39;20121;-64
2022/01/09 03:40:21;;;;;;;25.25;3.72;;;;;;;6.69;75.15;99149.22;3594594;39;20074;-64
2022/01/09 03:42:49;;;;;;;18.67;4.25;;;;;;;6.72;75.46;99161.47;3594383;39;20062;-66
2022/01/09 03:45:15;;;;;;;17.67;4.22;;;;;;;6.69;75.19;99172.38;3594734;39;20048;-66
2022/01/09 03:47:43;;;;;;;24.83;4.45;;;;;;;6.72;75.86;99178.38;3595526;39;20076;-67
2022/01/09 03:50:12;;;;;;;19.88;3.88;;;;;;;6.69;75.45;99185.72;3594559;39;20091;-64
2022/01/09 03:52:39;;;;;;;22.40;3.83;;;;;;;6.69;75.90;99196.41;3598092;39;20070;-65
2022/01/09 03:55:10;;;;;;;21.55;4.05;;;;;;;6.69;75.87;99189.28;3595097;39;20153;-64
2022/01/09 03:57:36;;;;;;;17.55;3.28;;;;;;;6.55;75.13;99170.72;3594717;39;20044;-64
2022/01/09 04:00:08;;;;;;;23.27;4.18;;;;;;;6.63;75.06;99195.06;3594691;39;20052;-66
2022/01/09 04:02:33;;;;;;;25.90;3.97;;;;;;;6.63;75.21;99202.19;3594717;39;20169;-64
2022/01/09 04:04:59;;;;;;;24.33;3.97;;;;;;;6.58;75.71;99212.34;3594300;39;20297;-64
2022/01/09 04:07:24;;;;;;;17.45;2.95;;;;;;;6.59;75.10;99227.41;3597278;39;20058;-67
2022/01/09 04:09:50;;;;;;;14.75;3.33;;;;;;;6.55;74.80;99229.44;3594672;39;20047;-64
2022/01/09 04:12:31;;;;;;;16.80;3.33;;;;;;;6.54;74.85;99225.06;3593321;39;20070;-64
2022/01/09 04:14:56;;;;;;;17.98;2.60;;;;;;;6.53;74.21;99236.69;3594609;39;20055;-66
2022/01/09 04:17:37;;;;;;;14.85;3.50;;;;;;;6.51;74.66;99243.97;3593998;39;20048;-66
2022/01/09 04:20:05;;;;;;;15.30;2.88;;;;;;;6.50;74.84;99253.81;3594437;39;20044;-66
2022/01/09 04:22:31;;;;;;;17.98;3.40;;;;;;;6.50;74.92;99259.13;3593999;39;20062;-64
2022/01/09 04:24:56;;;;;;;25.55;4.13;;;;;;;6.45;74.97;99263.09;3596740;39;20035;-64
2022/01/09 04:27:22;;;;;;;18.90;2.92;;;;;;;6.41;75.10;99270.47;3599134;39;20305;-65
2022/01/09 04:29:48;;;;;;;14.25;2.92;;;;;;;6.35;74.50;99267.38;3595230;39;20072;-65
2022/01/09 04:32:14;;;;;;;14.68;3.28;;;;;;;6.39;74.81;99275.03;3594512;39;20383;-65
2022/01/09 04:34:39;;;;;;;15.63;3.17;;;;;;;6.38;74.15;99276.00;3594231;39;20056;-65
2022/01/09 04:37:05;;;;;;;16.63;2.90;;;;;;;6.38;74.37;99289.34;3592715;39;20048;-65
2022/01/09 04:39:31;;;;;;;12.07;2.90;;;;;;;6.35;74.44;99292.22;3594094;39;20052;-65
2022/01/09 04:41:57;;;;;;;16.20;3.15;;;;;;;6.32;74.21;99310.28;3594296;39;20365;-64
2022/01/09 04:44:23;;;;;;;17.58;3.00;;;;;;;6.26;74.28;99298.19;3594614;39;20059;-65
2022/01/09 04:46:58;;;;;;;15.07;3.10;;;;;;;6.32;74.67;99307.59;3595257;39;20051;-65
2022/01/09 04:49:27;;;;;;;16.73;2.97;;;;;;;6.28;74.17;99318.50;3594003;39;20044;-65
2022/01/09 04:51:53;;;;;;;14.07;3.05;;;;;;;6.30;74.40;99330.84;3594189;39;20097;-65
2022/01/09 04:54:19;;;;;;;16.35;3.00;;;;;;;6.29;74.54;99335.34;3594193;39;20158;-65
2022/01/09 04:56:45;;;;;;;18.70;3.03;;;;;;;6.25;74.24;99340.03;3594107;39;20059;-65
2022/01/09 04:59:10;;;;;;;21.25;3.22;;;;;;;6.24;74.04;99337.47;3594284;39;20052;-64
2022/01/09 05:01:36;;;;;;;18.67;3.15;;;;;;;6.22;74.24;99342.91;3593839;39;20075;-65
2022/01/09 05:04:01;;;;;;;14.30;2.72;;;;;;;6.13;74.55;99346.19;3594095;39;20121;-64
2022/01/09 05:06:27;;;;;;;19.67;2.67;;;;;;;6.18;74.24;99356.56;3594017;39;20052;-65
2022/01/09 05:08:53;;;;;;;15.63;2.70;;;;;;;6.16;74.26;99374.50;3594440;39;20100;-65
2022/01/09 05:11:18;;;;;;;15.77;3.50;;;;;;;6.18;74.35;99375.22;3594319;39;20121;-65
2022/01/09 05:13:44;;;;;;;17.67;3.13;;;;;;;6.23;74.29;99384.63;3593641;39;20052;-64
2022/01/09 05:16:09;;;;;;;16.83;3.25;;;;;;;6.24;73.99;99397.00;3594143;39;20066;-64
2022/01/09 05:18:51;;;;;;;17.75;2.92;;;;;;;6.22;74.79;99393.63;3594367;39;20059;-64
2022/01/09 05:21:17;;;;;;;19.10;2.95;;;;;;;6.23;75.71;99415.81;3593650;39;20044;-65
2022/01/09 05:23:44;;;;;;;13.10;2.80;;;;;;;6.15;76.17;99411.00;3597852;39;20376;-64
2022/01/09 05:26:09;;;;;;;20.63;3.13;;;;;;;6.12;76.87;99424.53;3594338;39;20370;-64
2022/01/09 05:28:35;;;;;;;16.38;3.35;;;;;;;6.00;77.17;99404.00;3594128;39;20066;-64
2022/01/09 05:31:00;;;;;;;20.52;3.78;;;;;;;6.03;77.55;99425.13;3597869;39;20052;-64
2022/01/09 05:33:26;;;;;;;20.45;3.53;;;;;;;6.01;77.95;99425.22;3593927;39;20163;-64
2022/01/09 05:35:52;;;;;;;17.55;3.22;;;;;;;5.99;78.97;99429.81;3594990;39;20042;-65
2022/01/09 05:38:18;;;;;;;16.17;3.00;;;;;;;5.98;78.30;99433.44;3599981;39;20088;-65
2022/01/09 05:40:45;;;;;;;17.65;3.20;;;;;;;5.93;78.96;99429.34;3599894;39;20047;-65
2022/01/09 05:43:11;;;;;;;19.58;3.60;;;;;;;5.95;78.39;99448.78;3597446;39;20062;-65
2022/01/09 05:45:37;;;;;;;20.63;3.30;;;;;;;5.94;78.52;99455.94;3599630;39;20095;-65
2022/01/09 05:48:03;;;;;;;21.23;3.42;;;;;;;5.93;78.75;99462.22;3598873;39;20379;-65
2022/01/09 05:50:29;;;;;;;17.75;3.30;;;;;;;5.86;77.54;99444.84;3597805;39;20061;-65
2022/01/09 05:52:54;;;;;;;21.15;3.67;;;;;;;5.95;77.65;99454.09;3599095;39;20064;-65
2022/01/09 05:55:20;;;;;;;16.80;2.88;;;;;;;5.93;77.62;99454.22;3598975;39;20051;-65
2022/01/09 05:57:45;;;;;;;20.08;3.50;;;;;;;5.93;77.62;99459.56;3598487;39;20062;-65
2022/01/09 06:00:12;;;;;;;21.33;4.20;;;;;;;5.93;77.34;99466.69;3599659;39;20051;-66
2022/01/09 06:02:38;;;;;;;14.75;2.90;;;;;;;5.88;77.64;99450.09;3599478;39;20415;-66
2022/01/09 06:05:04;;;;;;;18.05;3.88;;;;;;;5.95;77.34;99470.13;3595756;39;20044;-65
2022/01/09 06:07:29;;;;;;;18.50;3.38;;;;;;;5.98;77.30;99473.44;3599047;39;20083;-65
2022/01/09 06:09:55;;;;;;;19.67;3.22;;;;;;;5.98;76.96;99469.91;3593972;39;20059;-65
2022/01/09 06:12:20;;;;;;;13.60;3.35;;;;;;;5.97;77.18;99478.88;3593553;39;20148;-65
2022/01/09 06:14:46;;;;;;;17.92;2.75;;;;;;;5.97;76.99;99484.22;3598282;39;20078;-66
2022/01/09 06:17:11;;;;;;;20.45;3.63;;;;;;;5.89;76.47;99473.13;3593761;39;20290;-65
2022/01/09 06:19:37;;;;;;;17.95;3.25;;;;;;;5.96;76.99;99487.81;3589856;39;20120;-65
2022/01/09 06:22:03;;;;;;;21.00;3.13;;;;;;;5.97;76.73;99500.22;3593278;39;20047;-65
2022/01/09 06:24:29;;;;;;;19.60;3.38;;;;;;;5.98;76.65;99491.25;3593630;39;20044;-65
2022/01/09 06:26:54;;;;;;;16.13;3.65;;;;;;;5.97;76.47;99492.22;3595995;39;20052;-65
2022/01/09 06:29:20;;;;;;;19.42;3.05;;;;;;;6.00;76.37;99505.34;3598295;39;20055;-65
2022/01/09 06:31:45;;;;;;;26.00;3.72;;;;;;;6.00;76.34;99508.88;3601989;39;20043;-65
2022/01/09 06:34:13;;;;;;;19.40;3.58;;;;;;;6.01;75.69;99507.06;3599717;39;20055;-65
2022/01/09 06:36:40;;;;;;;15.63;3.25;;;;;;;5.94;75.81;99501.25;3597926;39;20351;-65
2022/01/09 06:39:06;;;;;;;19.73;3.85;;;;;;;6.03;76.16;99513.16;3599593;39;20507;-65
2022/01/09 06:41:32;;;;;;;14.15;2.65;;;;;;;6.04;76.07;99517.53;3601238;39;20055;-65
2022/01/09 06:43:58;;;;;;;22.75;3.53;;;;;;;6.06;75.43;99520.97;3599534;39;20396;-65
2022/01/09 06:46:25;;;;;;;19.67;2.97;;;;;;;6.06;75.88;99526.31;3601932;39;20055;-65
2022/01/09 06:48:52;;;;;;;19.90;2.83;;;;;;;6.05;75.80;99532.56;3598844;39;21327;-65
2022/01/09 06:51:18;;;;;;;12.98;2.72;;;;;;;6.04;75.77;99533.53;3599829;39;20081;-65
2022/01/09 06:53:43;;;;;;;17.13;3.17;;;;;;;6.07;75.88;99535.16;3597276;39;20338;-65
2022/01/09 06:56:09;;;;;;;15.18;2.58;;;;;;;5.98;76.13;99510.78;3596731;39;20059;-65
2022/01/09 06:58:38;;;;;;;16.05;2.90;;;;;;;6.08;75.98;99544.88;3601372;39;20050;-65
2022/01/09 07:01:06;;;;;;;17.08;2.95;;;;;;;6.08;76.10;99545.72;3600538;39;20044;-65
2022/01/09 07:03:31;;;;;;;20.10;3.22;;;;;;;6.02;75.51;99546.97;3589451;39;20347;-66
2022/01/09 07:05:57;;;;;;;20.52;3.22;;;;;;;6.05;75.29;99556.59;3599269;39;20132;-65
2022/01/09 07:08:23;;;;;;;17.20;3.15;;;;;;;6.09;75.89;99563.47;3599829;39;20059;-64
2022/01/09 07:10:49;;;;;;;14.55;2.75;;;;;;;6.02;76.29;99562.97;3598845;39;20056;-65
2022/01/09 07:13:15;;;;;;;15.82;3.17;;;;;;;6.03;76.20;99571.84;3597854;39;20051;-65
2022/01/09 07:15:41;;;;;;;18.23;2.55;;;;;;;6.00;76.57;99574.72;3599979;39;20047;-65
2022/01/09 07:18:07;;;;;;;15.07;2.60;;;;;;;4.93;77.12;99406.31;3598920;39;20092;-67
2022/01/09 07:20:34;;;;;;;15.65;3.05;;;;;;;5.97;77.89;99582.91;3599908;39;20055;-65
2022/01/09 07:23:00;;;;;;;17.58;2.95;;;;;;;5.98;77.98;99603.28;3598508;39;20062;-65
2022/01/09 07:25:25;;;;;;;18.45;3.03;;;;;;;5.93;77.99;99606.25;3594958;39;20052;-64
2022/01/09 07:27:51;;;;;;;23.92;3.95;;;;;;;5.91;79.00;99607.25;3594750;39;20059;-65
2022/01/09 07:30:16;;;;;;;23.73;3.50;;;;;;;5.84;78.57;99595.25;3596709;39;20129;-64
2022/01/09 07:32:42;;;;;;;16.20;2.72;;;;;;;5.84;78.86;99595.25;3594517;39;20266;-64
2022/01/09 07:35:08;;;;;;;18.83;3.35;;;;;;;5.81;78.94;99599.81;3595218;39;20119;-65
2022/01/09 07:37:34;;;;;;;14.98;2.97;;;;;;;5.74;78.96;99602.94;3594625;39;20101;-65
2022/01/09 07:40:00;;;;;;;15.63;3.03;;;;;;;5.69;78.92;99605.06;3598339;39;20051;-65
2022/01/09 07:42:26;;;;;;;16.98;3.13;;;;;;;5.65;78.02;99608.88;3596281;39;20133;-65
2022/01/09 07:44:51;;;;;;;18.30;3.00;;;;;;;5.62;78.17;99612.56;3598374;39;20060;-65
2022/01/09 07:47:17;;;;;;;16.23;2.95;;;;;;;5.67;78.36;99615.78;3599893;39;20048;-65
2022/01/09 07:49:43;;;;;;;16.58;3.03;;;;;;;5.66;78.37;99627.41;3600140;39;20048;-66
2022/01/09 07:52:08;;;;;;;15.30;2.45;;;;;;;5.65;77.67;99636.38;3599679;39;20131;-66
2022/01/09 07:54:34;;;;;;;12.07;2.33;;;;;;;5.64;77.71;99636.47;3599963;39;20092;-65
2022/01/09 07:56:59;;;;;;;10.75;2.03;;;;;;;5.57;77.02;99642.16;3594561;39;20294;-65
2022/01/09 07:59:25;;;;;;;12.27;2.80;;;;;;;5.57;76.85;99646.63;3595023;39;20087;-66
2022/01/09 08:01:51;;;;;;;12.00;2.50;;;;;;;5.53;77.44;99650.44;3596145;39;20072;-65
2022/01/09 08:04:17;;;;;;;11.68;3.17;;;;;;;5.56;77.09;99650.25;3596397;39;20138;-65
2022/01/09 08:06:43;;;;;;;8.13;2.92;;;;;;;5.30;77.34;99622.50;3594398;39;20057;-65
2022/01/09 08:09:09;;;;;;;11.25;3.30;;;;;;;5.43;77.40;99646.63;3597038;39;20052;-65
2022/01/09 08:11:35;;;;;;;7.43;2.10;;;;;;;5.48;77.58;99657.84;3594547;39;20390;-65
2022/01/09 08:14:00;;;;;;;12.68;2.58;;;;;;;5.51;77.34;99660.31;3594456;39;20131;-65
2022/01/09 08:16:26;;;;;;;11.15;2.20;;;;;;;5.49;77.50;99659.59;3594775;39;20109;-65
2022/01/09 08:18:54;;;;;;;8.13;1.83;;;;;;;5.48;77.64;99669.34;3594605;39;20462;-65
2022/01/09 08:21:20;;;;;;;10.80;2.20;;;;;;;5.50;77.71;99675.47;3598479;39;20071;-65
2022/01/09 08:23:51;;;;;;;11.20;2.20;;;;;;;5.56;77.20;99684.91;3588686;39;20277;-65
2022/01/09 08:26:17;;;;;;;17.60;2.80;;;;;;;5.57;77.68;99694.63;3598666;39;20055;-65
2022/01/09 08:28:47;;;;;;;13.73;2.55;;;;;;;5.54;77.80;99689.47;3598483;39;20055;-65
2022/01/09 08:31:19;;;;;;;11.38;2.35;;;;;;;5.59;78.13;99690.06;3599704;39;20044;-65
2022/01/09 08:33:46;;;;;;;14.40;3.15;;;;;;;5.62;78.34;99700.53;3597371;39;20153;-66
2022/01/09 08:36:12;;;;;;;15.38;2.53;;;;;;;5.38;78.14;99656.69;3597964;39;20051;-66
2022/01/09 08:38:39;;;;;;;11.75;2.50;;;;;;;5.61;78.39;99690.81;3599762;39;20347;-65
2022/01/09 08:41:05;;;;;;;12.27;2.80;;;;;;;5.66;78.73;99695.88;3597730;39;20379;-66
2022/01/09 08:43:31;;;;;;;15.23;3.13;;;;;;;5.39;78.54;99645.06;3625816;22;20082;-65
2022/01/09 08:45:58;;;;;;;12.20;2.40;;;;;;;5.73;79.26;99699.91;3588636;40;20048;-65
2022/01/09 08:48:24;;;;;;;11.20;2.28;;;;;;;5.74;78.66;99707.81;3586309;40;20048;-65
2022/01/09 08:50:49;;;;;;;11.07;2.65;;;;;;;5.76;78.92;99711.22;3588979;40;20070;-66
2022/01/09 08:53:15;;;;;;;15.13;3.03;;;;;;;5.74;79.06;99713.16;3590007;40;20078;-65
2022/01/09 08:55:41;;;;;;;15.55;2.65;;;;;;;5.76;78.33;99723.72;3593090;40;20124;-65
2022/01/09 08:58:07;;;;;;;14.35;3.65;;;;;;;5.75;78.34;99720.19;3588288;40;20052;-65
2022/01/09 09:00:33;;;;;;;16.45;3.22;;;;;;;5.75;78.93;99730.00;3588625;40;20052;-64
2022/01/09 09:02:59;;;;;;;16.45;3.20;;;;;;;5.77;78.08;99734.31;3588237;40;20044;-64
2022/01/09 09:05:24;;;;;;;13.05;2.83;;;;;;;5.71;78.75;99713.34;3589422;40;20400;-66
2022/01/09 09:07:50;;;;;;;11.05;2.25;;;;;;;5.86;78.70;99734.69;3592002;40;20067;-65
2022/01/09 09:10:16;;;;;;;14.18;2.88;;;;;;;5.69;78.19;99719.69;3592177;40;20114;-66
2022/01/09 09:12:41;;;;;;;21.17;3.17;;;;;;;5.88;78.33;99740.78;3587908;40;20079;-65
2022/01/09 09:15:08;;;;;;;15.13;2.60;;;;;;;5.99;78.54;99738.34;3592685;40;20055;-65
2022/01/09 09:17:35;;;;;;;14.98;3.20;;;;;;;6.10;78.46;99751.06;3590223;40;20306;-65
2022/01/09 09:20:01;;;;;;;14.05;2.75;;;;;;;6.12;77.86;99741.13;3591614;40;20056;-65
2022/01/09 09:22:27;;;;;;;14.15;3.08;;;;;;;6.20;78.00;99742.38;3588893;40;20172;-65
2022/01/09 09:24:52;;;;;;;14.52;2.72;;;;;;;6.38;77.50;99772.44;3592692;40;20063;-65
2022/01/09 09:27:20;;;;;;;13.85;2.97;;;;;;;6.43;77.00;99766.81;3590955;40;20051;-65
2022/01/09 09:29:46;;;;;;;15.10;2.70;;;;;;;6.45;76.27;99770.25;3590229;40;20159;-66
2022/01/09 09:32:13;;;;;;;15.10;3.33;;;;;;;6.41;75.80;99771.41;3589402;40;20499;-65
2022/01/09 09:34:39;;;;;;;12.73;2.80;;;;;;;6.39;76.36;99773.28;3588370;40;20040;-65
2022/01/09 09:37:06;;;;;;;11.18;2.58;;;;;;;6.48;75.89;99781.59;3592918;40;20361;-65
2022/01/09 09:39:33;;;;;;;18.15;3.17;;;;;;;6.37;75.92;99772.53;3587917;40;20114;-64
2022/01/09 09:42:00;;;;;;;16.73;2.75;;;;;;;6.31;75.86;99755.06;3591396;40;20044;-65
2022/01/09 09:44:26;;;;;;;20.17;3.45;;;;;;;6.50;75.84;99790.38;3590325;40;20109;-64
2022/01/09 09:46:53;;;;;;;14.13;2.70;;;;;;;6.56;75.80;99789.13;3589118;40;20052;-65
2022/01/09 09:49:20;;;;;;;15.10;2.88;;;;;;;6.61;75.39;99804.88;3590666;40;20060;-65
2022/01/09 09:51:46;;;;;;;18.25;3.40;;;;;;;6.64;75.45;99805.53;3590269;40;20056;-65
2022/01/09 09:54:12;;;;;;;11.63;2.90;;;;;;;6.69;76.09;99818.59;3589436;40;20409;-65
2022/01/09 09:56:38;;;;;;;17.20;3.00;;;;;;;6.67;76.24;99789.31;3590133;40;20056;-65
2022/01/09 09:59:04;;;;;;;17.60;2.95;;;;;;;6.82;75.80;99813.34;3589901;40;20060;-65
2022/01/09 10:01:34;;;;;;;16.20;3.50;;;;;;;6.87;75.86;99813.91;3590186;40;20401;-65
2022/01/09 10:04:05;;;;;;;11.88;2.53;;;;;;;6.94;75.88;99815.25;3586371;40;20056;-65
2022/01/09 10:06:38;;;;;;;15.55;3.78;;;;;;;7.08;76.74;99819.72;3588497;40;20059;-66
2022/01/09 10:09:23;;;;;;;13.43;2.63;;;;;;;7.00;75.93;99784.63;3590326;40;20047;-65
2022/01/09 10:11:54;;;;;;;17.58;3.92;;;;;;;7.22;75.34;99815.19;3593636;40;20187;-65
2022/01/09 10:14:26;;;;;;;15.27;3.05;;;;;;;7.24;74.62;99825.81;3585721;40;20059;-66
2022/01/09 10:17:18;;;;;;;15.07;3.33;;;;;;;7.32;75.82;99825.31;3592178;40;20052;-65
2022/01/09 10:19:53;;;;;;;15.60;3.20;;;;;;;7.32;74.99;99820.81;3589224;40;20287;-65
2022/01/09 10:22:57;;;;;;;18.48;3.83;;;;;;;7.31;74.05;99818.25;3590145;40;20055;-66
2022/01/09 10:25:36;;;;;;;18.95;3.13;;;;;;;7.27;73.74;99824.75;3569144;40;20055;-66
2022/01/09 10:28:17;;;;;;;14.77;3.10;;;;;;;7.26;73.38;99828.38;3587164;40;20084;-64
2022/01/09 10:30:51;;;;;;;13.07;3.22;;;;;;;7.29;73.95;99830.84;3589557;40;20051;-65
2022/01/09 10:33:28;;;;;;;19.83;3.35;;;;;;;7.34;73.38;99826.94;3593716;40;20043;-66
2022/01/09 10:35:53;;;;;;;15.48;3.22;;;;;;;7.38;73.48;99832.94;3590063;40;20456;-65
2022/01/09 10:38:22;;;;;;;13.52;2.83;;;;;;;7.41;73.51;99830.91;3592989;40;20046;-66
2022/01/09 10:41:03;;;;;;;15.20;2.95;;;;;;;7.43;72.85;99841.53;3588064;40;20481;-65
2022/01/09 10:43:40;;;;;;;18.65;3.25;;;;;;;7.29;73.64;99815.66;3592618;40;20059;-64
2022/01/09 10:46:06;;;;;;;15.60;3.25;;;;;;;7.51;73.46;99841.00;3587830;40;20092;-65
2022/01/09 10:48:32;;;;;;;13.48;3.17;;;;;;;7.54;73.12;99843.50;3591313;40;20056;-65
2022/01/09 10:50:59;;;;;;;11.95;2.65;;;;;;;7.58;72.83;99840.53;3594280;40;20078;-65
2022/01/09 10:53:31;;;;;;;17.25;3.08;;;;;;;7.65;73.00;99847.19;3592843;40;20047;-65
2022/01/09 10:56:08;;;;;;;20.15;3.70;;;;;;;7.66;72.00;99848.03;3585975;40;20048;-65
2022/01/09 10:58:53;;;;;;;14.52;3.17;;;;;;;7.65;72.14;99852.53;3586294;40;20091;-65
2022/01/09 11:01:25;;;;;;;13.85;3.38;;;;;;;7.81;71.23;99854.22;3592342;40;20047;-64
2022/01/09 11:03:55;;;;;;;15.98;3.20;;;;;;;8.09;71.39;99859.44;3592208;40;20043;-66
2022/01/09 11:06:24;;;;;;;18.27;3.45;;;;;;;8.38;70.44;99856.66;3591686;40;20109;-65
2022/01/09 11:08:52;;;;;;;16.02;3.67;;;;;;;8.68;68.72;99859.00;3578680;40;20056;-65
2022/01/09 11:11:30;;;;;;;13.45;2.58;;;;;;;8.83;67.94;99849.06;3592193;40;20044;-65
2022/01/09 11:13:59;;;;;;;16.17;3.38;;;;;;;8.99;67.46;99859.56;3587884;40;20074;-64
2022/01/09 11:16:34;;;;;;;15.32;3.25;;;;;;;8.90;67.36;99861.06;3591767;40;20075;-65
2022/01/09 11:19:06;;;;;;;13.93;3.10;;;;;;;8.75;67.12;99864.81;3587813;40;20157;-66
2022/01/09 11:21:33;;;;;;;19.27;5.40;;;;;;;8.63;67.66;99866.53;3588335;40;20052;-64
2022/01/09 11:24:01;;;;;;;13.80;2.83;;;;;;;8.60;67.08;99872.94;3590649;40;20059;-64
2022/01/09 11:26:49;;;;;;;11.07;2.33;;;;;;;8.73;68.63;99870.28;3577596;40;20097;-65
2022/01/09 11:29:22;;;;;;;13.68;3.42;;;;;;;9.05;67.80;99883.25;3586888;40;20088;-65
2022/01/09 11:32:00;;;;;;;;;;;;;;;9.10;66.42;99882.91;3587981;40;20076;-64
2022/01/09 11:34:55;;;;;;;19.17;3.13;;;;;;;8.92;66.33;99880.56;3592638;40;19947;-67
2022/01/09 11:38:14;;;;;;;13.73;2.63;;;;;;;9.04;65.83;99874.34;3575070;40;20364;-65